Time;durP1;ratioP1;P1;durP2;ratioP2;P2;SDS_P1;SDS_P2;PMS_P1;PMS_P2;Temp;Humidity;BMP_temperature;BMP_pressure;BME280_temperature;BME280_humidity;BME280_pressure;Samples;Min_cycle;Max_cycle;Signal;HPM_P1;HPM_P2
2024/03/03 00:02:13;;;;;;;0.10;0.10;;;;;;;12.82;58.49;99857.41;5092736;28;20021;-79
2024/03/03 00:04:39;;;;;;;0.10;0.10;;;;;;;12.84;58.42;99852.88;5100504;28;20032;-80
2024/03/03 00:07:11;;;;;;;0.10;0.10;;;;;;;12.83;58.09;99859.13;5100788;28;20054;-80
2024/03/03 00:09:37;;;;;;;0.10;0.10;;;;;;;12.81;58.49;99853.03;5101103;28;20048;-80
2024/03/03 00:12:03;;;;;;;0.10;0.10;;;;;;;12.80;57.97;99859.28;5096413;28;20021;-79
2024/03/03 00:14:30;;;;;;;0.10;0.10;;;;;;;12.77;58.33;99856.75;5094359;28;20032;-78
2024/03/03 00:16:57;;;;;;;0.10;0.10;;;;;;;12.66;58.19;99864.34;5095431;28;20024;-78
2024/03/03 00:19:23;;;;;;;0.30;0.30;;;;;;;12.66;58.41;99861.69;5096496;28;20028;-78
2024/03/03 00:21:49;;;;;;;0.10;0.10;;;;;;;12.62;58.20;99861.84;5096450;28;20040;-79
2024/03/03 00:24:16;;;;;;;0.20;0.20;;;;;;;12.66;58.38;99867.00;5097325;28;20503;-78
2024/03/03 00:26:42;;;;;;;0.10;0.10;;;;;;;12.65;58.20;99867.94;5097174;28;20047;-78
2024/03/03 00:29:10;;;;;;;1.90;1.23;;;;;;;12.64;58.08;99867.06;5097184;28;20059;-78
2024/03/03 00:31:45;;;;;;;0.10;0.10;;;;;;;12.66;58.19;99861.69;5096614;28;20032;-78
2024/03/03 00:34:11;;;;;;;0.10;0.10;;;;;;;12.58;58.89;99860.22;5096721;28;20221;-78
2024/03/03 00:36:38;;;;;;;0.10;0.10;;;;;;;12.56;58.69;99862.09;5096394;28;20032;-79
2024/03/03 00:39:04;;;;;;;0.10;0.10;;;;;;;12.50;58.46;99870.34;5099784;28;20019;-79
2024/03/03 00:41:30;;;;;;;0.10;0.10;;;;;;;12.54;58.64;99865.75;5101443;28;20031;-78
2024/03/03 00:43:56;;;;;;;0.10;0.10;;;;;;;12.49;58.61;99871.28;5101677;28;20062;-78
2024/03/03 00:46:25;;;;;;;0.20;0.20;;;;;;;12.57;58.43;99871.81;5101501;28;20070;-79
2024/03/03 00:48:51;;;;;;;0.20;0.20;;;;;;;12.54;58.38;99866.63;5101283;28;20027;-78
2024/03/03 00:51:18;;;;;;;0.20;0.20;;;;;;;12.62;58.31;99861.84;5101748;28;20035;-79
2024/03/03 00:53:44;;;;;;;0.13;0.13;;;;;;;12.61;58.45;99859.22;5099406;28;20032;-79
2024/03/03 00:56:10;;;;;;;0.38;0.38;;;;;;;12.64;58.48;99858.25;5100684;28;20024;-79
2024/03/03 00:58:36;;;;;;;0.10;0.10;;;;;;;12.61;58.66;99859.22;5101423;28;20404;-79
2024/03/03 01:01:03;;;;;;;0.20;0.20;;;;;;;12.60;58.69;99858.38;5101391;28;20024;-79
2024/03/03 01:03:30;;;;;;;0.10;0.10;;;;;;;12.60;58.39;99863.69;5101792;28;20035;-78
2024/03/03 01:05:56;;;;;;;0.10;0.10;;;;;;;12.53;58.64;99856.91;5091954;28;20415;-79
2024/03/03 01:08:23;;;;;;;0.10;0.10;;;;;;;12.57;58.95;99868.28;5101324;28;20046;-79
2024/03/03 01:10:49;;;;;;;0.20;0.20;;;;;;;12.48;58.56;99869.53;5100229;28;20052;-78
2024/03/03 01:13:15;;;;;;;0.10;0.10;;;;;;;12.45;58.47;99865.22;5092264;28;20050;-79
2024/03/03 01:15:41;;;;;;;0.10;0.10;;;;;;;12.37;58.89;99869.16;5091843;28;20032;-79
2024/03/03 01:18:08;;;;;;;0.20;0.20;;;;;;;12.25;58.90;99866.09;5101511;28;20035;-79
2024/03/03 01:20:34;;;;;;;0.10;0.10;;;;;;;12.20;59.23;99870.72;5100117;28;20088;-79
2024/03/03 01:23:00;;;;;;;0.20;0.20;;;;;;;12.08;59.74;99869.44;5093768;28;20143;-78
2024/03/03 01:25:28;;;;;;;0.10;0.10;;;;;;;11.98;59.74;99868.97;5100204;28;20032;-78
2024/03/03 01:27:55;;;;;;;0.68;0.68;;;;;;;11.93;60.19;99868.25;5100189;28;20630;-78
2024/03/03 01:30:21;;;;;;;0.10;0.10;;;;;;;11.95;59.43;99871.72;5090537;28;20044;-78
2024/03/03 01:32:47;;;;;;;0.10;0.10;;;;;;;11.96;59.91;99867.31;5098518;28;20077;-79
2024/03/03 01:35:14;;;;;;;0.10;0.10;;;;;;;11.98;60.46;99879.59;5100023;28;20031;-79
2024/03/03 01:37:40;;;;;;;0.10;0.10;;;;;;;12.02;60.36;99876.81;5100833;28;20066;-78
2024/03/03 01:40:07;;;;;;;0.20;0.20;;;;;;;12.08;60.00;99868.59;5099470;28;20028;-79
2024/03/03 01:42:33;;;;;;;0.13;0.13;;;;;;;12.09;60.13;99871.19;5100928;28;20024;-79
2024/03/03 01:44:59;;;;;;;0.52;0.52;;;;;;;12.09;60.11;99863.22;5100223;28;20428;-78
2024/03/03 01:47:26;;;;;;;0.15;0.15;;;;;;;12.09;60.17;99870.31;5099993;28;20024;-80
2024/03/03 01:49:54;;;;;;;0.10;0.10;;;;;;;12.14;59.86;99860.38;5100589;28;20036;-78
2024/03/03 01:52:20;;;;;;;0.22;0.22;;;;;;;12.12;60.69;99863.09;5100603;28;20028;-78
2024/03/03 01:54:47;;;;;;;0.10;0.10;;;;;;;12.12;60.30;99867.53;5100546;28;20542;-78
2024/03/03 01:57:16;;;;;;;0.10;0.10;;;;;;;12.13;60.32;99870.09;5093191;28;20036;-79
2024/03/03 01:59:42;;;;;;;0.10;0.10;;;;;;;12.09;60.43;99871.19;5098754;28;20024;-79
2024/03/03 02:02:10;;;;;;;0.10;0.10;;;;;;;12.09;60.21;99870.31;5100637;28;20031;-79
2024/03/03 02:04:37;;;;;;;0.10;0.10;;;;;;;12.08;60.21;99871.25;5099389;28;20024;-78
2024/03/03 02:07:03;;;;;;;0.30;0.30;;;;;;;12.04;59.92;99869.66;5095755;28;20178;-79
2024/03/03 02:09:29;;;;;;;0.10;0.10;;;;;;;12.00;59.88;99862.72;5097099;28;20158;-78
2024/03/03 02:11:56;;;;;;;0.10;0.10;;;;;;;11.94;59.97;99862.03;5100298;28;20535;-79
2024/03/03 02:14:22;;;;;;;0.10;0.10;;;;;;;11.91;60.56;99874.56;5100205;28;20032;-78
2024/03/03 02:16:51;;;;;;;0.10;0.10;;;;;;;11.87;59.90;99876.47;5100874;28;20028;-79
2024/03/03 02:19:17;;;;;;;0.10;0.10;;;;;;;11.81;59.86;99876.72;5102009;28;20077;-78
2024/03/03 02:21:44;;;;;;;0.22;0.22;;;;;;;11.74;60.56;99878.78;5101836;28;20024;-77
2024/03/03 02:24:10;;;;;;;0.10;0.10;;;;;;;11.72;60.29;99880.63;5101597;28;20028;-79
2024/03/03 02:26:37;;;;;;;0.10;0.10;;;;;;;11.66;60.50;99883.50;5099824;28;20040;-79
2024/03/03 02:29:05;;;;;;;0.10;0.10;;;;;;;11.64;60.83;99888.03;5096893;28;20044;-80
2024/03/03 02:31:32;;;;;;;0.13;0.13;;;;;;;11.60;61.14;99881.09;5098309;28;20085;-80
2024/03/03 02:33:59;;;;;;;0.15;0.15;;;;;;;11.57;60.87;99887.41;5095512;28;20399;-77
2024/03/03 02:36:25;;;;;;;0.10;0.10;;;;;;;11.54;61.01;99890.19;5094687;28;20024;-80
2024/03/03 02:38:51;;;;;;;0.00;0.00;;;;;;;11.54;60.92;99898.16;5096919;28;20055;-79
2024/03/03 02:41:19;;;;;;;0.10;0.10;;;;;;;11.54;61.60;99892.84;5097344;28;20027;-77
2024/03/03 02:43:46;;;;;;;0.10;0.10;;;;;;;11.56;61.76;99885.66;5098654;28;20111;-77
2024/03/03 02:46:14;;;;;;;0.10;0.10;;;;;;;11.58;61.48;99893.59;5097520;28;20035;-78
2024/03/03 02:48:40;;;;;;;0.10;0.10;;;;;;;11.57;61.84;99908.63;5098223;28;20028;-80
2024/03/03 02:51:07;;;;;;;0.10;0.10;;;;;;;11.60;61.47;99908.53;5099328;28;20028;-79
2024/03/03 02:53:33;;;;;;;0.10;0.10;;;;;;;11.65;61.29;99890.63;5100496;28;20024;-79
2024/03/03 02:55:59;;;;;;;0.15;0.15;;;;;;;11.67;61.58;99893.22;5099188;28;20031;-78
2024/03/03 02:58:27;;;;;;;0.10;0.10;;;;;;;11.69;61.60;99890.47;5104811;28;20066;-80
2024/03/03 03:00:54;;;;;;;0.10;0.10;;;;;;;11.68;61.37;99886.13;5106222;28;20028;-80
2024/03/03 03:03:20;;;;;;;0.10;0.10;;;;;;;11.69;61.40;99886.06;5102138;28;20099;-79
2024/03/03 03:05:49;;;;;;;0.10;0.10;;;;;;;11.73;60.98;99887.66;5100800;28;20028;-79
2024/03/03 03:08:15;;;;;;;0.57;0.57;;;;;;;11.69;60.99;99893.13;5101693;28;20060;-79
2024/03/03 03:10:41;;;;;;;0.10;0.10;;;;;;;11.67;61.31;99887.91;5100724;28;20038;-80
2024/03/03 03:13:08;;;;;;;0.10;0.10;;;;;;;11.64;61.26;99888.88;5101108;28;20526;-79
2024/03/03 03:15:36;;;;;;;0.10;0.10;;;;;;;11.64;61.04;99888.88;5100629;28;20035;-80
2024/03/03 03:18:03;;;;;;;0.10;0.10;;;;;;;11.61;61.62;99888.16;5101743;28;20095;-80
2024/03/03 03:20:34;;;;;;;0.43;0.43;;;;;;;11.60;61.94;99887.28;5101675;28;20034;-80
2024/03/03 03:23:00;;;;;;;0.10;0.10;;;;;;;11.49;61.57;99890.34;5100209;28;20032;-80
2024/03/03 03:25:32;;;;;;;0.10;0.10;;;;;;;11.52;61.30;99886.72;5098730;28;20027;-79
2024/03/03 03:27:58;;;;;;;1.02;1.02;;;;;;;11.43;61.23;99882.63;5085333;28;20024;-79
2024/03/03 03:30:24;;;;;;;0.30;0.30;;;;;;;11.39;61.60;99878.38;5094009;28;20449;-79
2024/03/03 03:32:50;;;;;;;0.57;0.57;;;;;;;11.38;61.88;99881.97;5097592;28;20092;-80
2024/03/03 03:35:16;;;;;;;0.20;0.20;;;;;;;11.40;61.72;99895.16;5096817;28;20487;-79
2024/03/03 03:37:42;;;;;;;0.10;0.10;;;;;;;11.36;61.67;99886.44;5080429;28;20051;-78
2024/03/03 03:40:09;;;;;;;0.10;0.10;;;;;;;11.36;61.69;99882.94;5097417;28;20031;-78
2024/03/03 03:42:36;;;;;;;0.28;0.28;;;;;;;11.35;61.48;99891.81;5096664;28;20031;-79
2024/03/03 03:45:03;;;;;;;0.00;0.00;;;;;;;11.32;61.84;99893.66;5098261;28;20028;-79
2024/03/03 03:47:30;;;;;;;0.10;0.10;;;;;;;11.32;62.46;99895.44;5097417;28;20024;-80
2024/03/03 03:49:56;;;;;;;0.30;0.30;;;;;;;11.35;62.16;99900.63;5098649;28;20099;-80
2024/03/03 03:52:22;;;;;;;0.20;0.20;;;;;;;11.36;61.63;99898.84;5097983;28;20508;-80
2024/03/03 03:54:49;;;;;;;0.10;0.10;;;;;;;11.35;61.68;99894.47;5097823;28;20032;-79
2024/03/03 03:57:15;;;;;;;0.50;0.50;;;;;;;11.35;61.60;99897.13;5096463;28;20028;-78
2024/03/03 03:59:42;;;;;;;0.10;0.10;;;;;;;11.33;61.50;99895.38;5089608;28;20170;-79
2024/03/03 04:02:10;;;;;;;0.10;0.10;;;;;;;11.27;61.49;99895.63;5097868;28;20540;-79
2024/03/03 04:04:36;;;;;;;0.10;0.10;;;;;;;11.28;61.81;99907.97;5089103;28;20066;-80
2024/03/03 04:07:04;;;;;;;0.20;0.20;;;;;;;11.23;61.68;99899.31;5097211;28;20032;-79
2024/03/03 04:09:31;;;;;;;0.10;0.10;;;;;;;11.19;61.56;99905.66;5097381;28;20042;-80
2024/03/03 04:12:00;;;;;;;0.10;0.10;;;;;;;11.21;61.48;99908.25;5097251;28;20419;-79
2024/03/03 04:14:27;;;;;;;0.10;0.10;;;;;;;11.17;61.88;99907.50;5101360;28;20032;-79
2024/03/03 04:16:53;;;;;;;0.10;0.10;;;;;;;11.17;62.27;99915.47;5102812;28;20035;-80
2024/03/03 04:19:19;;;;;;;0.52;0.52;;;;;;;11.16;62.21;99913.72;5104381;28;20107;-80
2024/03/03 04:21:46;;;;;;;0.10;0.10;;;;;;;11.14;61.75;99911.13;5104963;28;20028;-79
2024/03/03 04:24:12;;;;;;;0.10;0.10;;;;;;;11.13;62.31;99913.84;5104571;28;20028;-79
2024/03/03 04:26:38;;;;;;;0.20;0.20;;;;;;;11.09;61.81;99913.09;5103593;28;20039;-79
2024/03/03 04:29:04;;;;;;;0.10;0.10;;;;;;;11.03;61.74;99913.31;5104327;28;20020;-79
2024/03/03 04:31:31;;;;;;;0.10;0.10;;;;;;;10.99;61.99;99911.69;5103889;28;20051;-79
2024/03/03 04:33:57;;;;;;;0.30;0.30;;;;;;;10.96;62.08;99927.72;5103965;28;20384;-79
2024/03/03 04:36:23;;;;;;;0.20;0.20;;;;;;;10.90;62.18;99923.50;5103471;28;20587;-79
2024/03/03 04:38:52;;;;;;;0.13;0.13;;;;;;;10.89;62.35;99926.22;5104738;28;20032;-79
2024/03/03 04:41:19;;;;;;;6.38;0.85;;;;;;;10.83;62.54;99932.59;5095361;28;20433;-79
2024/03/03 04:43:46;;;;;;;0.85;0.85;;;;;;;10.79;62.73;99930.97;5103997;28;20046;-79
2024/03/03 04:46:13;;;;;;;0.10;0.10;;;;;;;10.82;62.36;99936.16;5102824;28;20036;-79
2024/03/03 04:48:40;;;;;;;0.30;0.30;;;;;;;10.82;62.88;99937.03;5103604;28;20111;-79
2024/03/03 04:51:07;;;;;;;0.10;0.10;;;;;;;10.86;62.67;99943.09;5103344;28;20085;-79
2024/03/03 04:53:33;;;;;;;0.10;0.10;;;;;;;10.89;62.82;99948.28;5102885;28;20028;-79
2024/03/03 04:55:59;;;;;;;0.10;0.10;;;;;;;10.94;62.91;99935.72;5099125;28;20035;-78
2024/03/03 04:58:26;;;;;;;0.10;0.10;;;;;;;10.97;63.46;99940.91;5099207;28;20032;-79
2024/03/03 05:00:52;;;;;;;0.10;0.10;;;;;;;11.03;62.87;99941.59;5099395;28;20084;-79
2024/03/03 05:03:18;;;;;;;0.10;0.10;;;;;;;11.08;62.91;99943.19;5092039;28;20035;-78
2024/03/03 05:05:44;;;;;;;0.10;0.10;;;;;;;11.12;63.00;99934.19;5099308;28;20051;-78
2024/03/03 05:08:11;;;;;;;0.10;0.10;;;;;;;11.17;62.50;99940.19;5099389;28;20110;-79
2024/03/03 05:10:37;;;;;;;0.10;0.10;;;;;;;11.21;62.85;99942.72;5099863;28;20031;-78
2024/03/03 05:13:03;;;;;;;0.10;0.10;;;;;;;11.26;62.74;99954.03;5101026;28;20043;-78
2024/03/03 05:15:31;;;;;;;0.10;0.10;;;;;;;11.28;62.37;99953.03;5099128;28;20032;-78
2024/03/03 05:17:57;;;;;;;0.10;0.10;;;;;;;11.31;62.57;99958.25;5098918;28;20047;-77
2024/03/03 05:20:27;;;;;;;0.10;0.10;;;;;;;11.33;62.49;99959.03;5097521;28;20445;-79
2024/03/03 05:22:53;;;;;;;0.10;0.10;;;;;;;11.36;62.72;99959.84;5096996;28;20021;-77
2024/03/03 05:25:22;;;;;;;0.10;0.10;;;;;;;11.39;62.56;99962.38;5096522;28;20107;-77
2024/03/03 05:27:48;;;;;;;0.10;0.10;;;;;;;11.43;62.24;99964.00;5096925;28;20028;-77
2024/03/03 05:30:14;;;;;;;0.10;0.10;;;;;;;11.45;62.90;99962.16;5097213;28;20042;-77
2024/03/03 05:32:40;;;;;;;0.10;0.10;;;;;;;11.48;62.43;99962.03;5097039;28;20024;-77
2024/03/03 05:35:07;;;;;;;0.10;0.10;;;;;;;11.48;62.39;99957.59;5098360;28;20062;-78
2024/03/03 05:37:33;;;;;;;0.10;0.10;;;;;;;11.51;62.64;99964.56;5092019;28;20074;-77
2024/03/03 05:39:59;;;;;;;0.10;0.10;;;;;;;11.52;62.01;99958.34;5094222;28;20030;-77
2024/03/03 05:42:25;;;;;;;0.10;0.10;;;;;;;11.52;62.27;99966.31;5092410;28;20028;-78
2024/03/03 05:44:51;;;;;;;0.10;0.10;;;;;;;11.53;62.80;99972.50;5087842;28;20029;-77
2024/03/03 05:47:18;;;;;;;0.43;0.43;;;;;;;11.52;62.25;99974.25;5082342;28;20499;-76
2024/03/03 05:49:44;;;;;;;0.10;0.10;;;;;;;11.52;62.71;99987.53;5096067;28;20119;-77
2024/03/03 05:52:10;;;;;;;0.10;0.10;;;;;;;11.49;62.70;99987.66;5095938;28;20050;-78
2024/03/03 05:54:36;;;;;;;0.10;0.10;;;;;;;11.49;62.48;99995.63;5094858;28;20118;-77
2024/03/03 05:57:03;;;;;;;0.20;0.20;;;;;;;11.48;62.72;99993.88;5075141;28;20111;-77
2024/03/03 05:59:29;;;;;;;0.10;0.10;;;;;;;11.50;62.54;99997.31;5092579;28;20038;-79
2024/03/03 06:01:58;;;;;;;0.10;0.10;;;;;;;11.52;62.87;100011.41;5084333;28;20520;-79
2024/03/03 06:04:24;;;;;;;0.25;0.25;;;;;;;11.54;62.18;100006.03;5085430;28;20028;-77
2024/03/03 06:06:53;;;;;;;2.90;0.52;;;;;;;11.54;62.84;100009.56;5096941;28;20058;-80
2024/03/03 06:09:19;;;;;;;0.10;0.10;;;;;;;11.54;62.38;100019.28;5099797;28;20028;-80
2024/03/03 06:11:45;;;;;;;0.10;0.10;;;;;;;11.55;62.61;100027.22;5098670;28;20024;-79
2024/03/03 06:14:14;;;;;;;0.00;0.00;;;;;;;11.55;62.16;100021.91;5099702;28;20410;-79
2024/03/03 06:16:40;;;;;;;0.10;0.10;;;;;;;11.54;62.09;100019.28;5100024;28;20399;-80
2024/03/03 06:19:07;;;;;;;0.10;0.10;;;;;;;11.54;62.75;100021.94;5105064;28;20035;-80
2024/03/03 06:21:36;;;;;;;0.20;0.20;;;;;;;11.53;62.41;100017.59;5107941;28;20024;-80
2024/03/03 06:24:02;;;;;;;0.10;0.10;;;;;;;11.49;62.40;100023.00;5102270;28;20046;-81
2024/03/03 06:26:30;;;;;;;0.10;0.10;;;;;;;11.47;62.17;100018.66;5101416;28;20020;-80
2024/03/03 06:28:56;;;;;;;0.20;0.20;;;;;;;11.47;62.82;100018.66;5101347;28;20031;-80
2024/03/03 06:31:23;;;;;;;0.35;0.35;;;;;;;11.45;62.42;100023.16;5101114;28;20096;-80
2024/03/03 06:33:49;;;;;;;0.10;0.10;;;;;;;11.46;62.57;100035.50;5102144;28;20028;-81
2024/03/03 06:36:17;;;;;;;0.10;0.10;;;;;;;11.47;62.96;100042.53;5100624;28;20035;-81
2024/03/03 06:38:48;;;;;;;0.35;0.35;;;;;;;11.49;62.25;100048.66;5101709;28;20028;-80
2024/03/03 06:41:15;;;;;;;0.10;0.10;;;;;;;11.47;63.07;100053.16;5102052;28;20028;-81
2024/03/03 06:43:42;;;;;;;0.10;0.10;;;;;;;11.45;62.65;100058.53;5102442;28;20111;-81
2024/03/03 06:46:10;;;;;;;0.10;0.10;;;;;;;11.45;62.41;100053.22;5101119;28;20111;-81
2024/03/03 06:48:37;;;;;;;0.03;0.03;;;;;;;11.45;62.87;100061.19;5100390;28;20020;-80
2024/03/03 06:51:09;;;;;;;0.20;0.20;;;;;;;11.49;62.60;100060.13;5101076;28;20518;-80
2024/03/03 06:53:38;;;;;;;0.30;0.30;;;;;;;11.47;63.36;100067.28;5101009;28;20067;-80
2024/03/03 06:56:11;;;;;;;0.10;0.10;;;;;;;11.48;63.28;100078.75;5100033;28;20027;-80
2024/03/03 06:58:37;;;;;;;0.10;0.10;;;;;;;11.50;63.24;100074.25;5102277;28;20379;-81
2024/03/03 07:01:03;;;;;;;1.40;0.75;;;;;;;11.51;62.67;100083.94;5100050;28;20024;-78
2024/03/03 07:06:10;;;;;;;0.10;0.10;;;;;;;11.55;63.24;100090.91;5118425;27;20384;-79
2024/03/03 07:08:36;;;;;;;0.10;0.10;;;;;;;11.57;63.33;100094.34;5119107;28;20491;-80
2024/03/03 07:11:03;;;;;;;0.10;0.10;;;;;;;11.60;62.64;100083.63;5117922;28;20032;-79
2024/03/03 07:13:29;;;;;;;0.10;0.10;;;;;;;11.62;63.52;100092.38;5118705;28;20027;-79
2024/03/03 07:15:55;;;;;;;0.10;0.10;;;;;;;11.63;63.37;100087.97;5116747;28;20032;-79
2024/03/03 07:18:21;;;;;;;0.10;0.10;;;;;;;11.65;63.16;100091.41;5115918;28;20024;-78
2024/03/03 07:20:48;;;;;;;0.40;0.40;;;;;;;11.68;63.29;100087.78;5114741;28;20057;-79
2024/03/03 07:23:14;;;;;;;0.32;0.32;;;;;;;11.70;63.28;100088.59;5114802;28;20032;-78
2024/03/03 07:25:43;;;;;;;0.10;0.10;;;;;;;11.74;63.17;100082.22;5106596;28;20550;-79
2024/03/03 07:28:09;;;;;;;0.15;0.15;;;;;;;11.73;62.95;100084.03;5115442;28;20101;-78
2024/03/03 07:30:36;;;;;;;2.78;0.75;;;;;;;11.76;63.30;100083.94;5115660;28;20016;-79
2024/03/03 07:33:02;;;;;;;0.10;0.10;;;;;;;11.79;62.94;100090.91;5116592;28;20027;-79
2024/03/03 07:35:31;;;;;;;0.10;0.10;;;;;;;11.85;63.32;100089.81;5115481;28;20030;-78
2024/03/03 07:37:57;;;;;;;0.82;0.82;;;;;;;11.86;63.40;100095.03;5113875;28;20091;-78
2024/03/03 07:40:23;;;;;;;0.10;0.10;;;;;;;11.87;63.00;100096.78;5114293;28;20128;-78
2024/03/03 07:42:49;;;;;;;0.10;0.10;;;;;;;11.91;63.23;100095.75;5114004;28;20039;-78
2024/03/03 07:45:15;;;;;;;0.10;0.10;;;;;;;11.95;63.48;100092.06;5113746;28;20053;-78
2024/03/03 07:47:42;;;;;;;0.10;0.10;;;;;;;11.99;62.88;100090.19;5114237;28;20027;-79
2024/03/03 07:50:08;;;;;;;0.10;0.10;;;;;;;12.02;62.76;100095.38;5114031;28;20043;-78
2024/03/03 07:52:34;;;;;;;0.47;0.47;;;;;;;12.05;62.78;100099.69;5114305;28;20051;-78
2024/03/03 07:55:00;;;;;;;0.10;0.10;;;;;;;12.04;62.66;100104.16;5114138;28;20053;-78
2024/03/03 07:57:29;;;;;;;0.43;0.43;;;;;;;12.10;63.20;100103.03;5113575;28;20083;-79
2024/03/03 07:59:55;;;;;;;0.73;0.73;;;;;;;12.08;63.20;100102.25;5106573;28;20031;-78
2024/03/03 08:02:22;;;;;;;0.10;0.10;;;;;;;12.12;63.05;100106.50;5114327;28;20084;-78
2024/03/03 08:04:52;;;;;;;0.17;0.17;;;;;;;12.13;62.97;100106.44;5114555;28;20036;-79
2024/03/03 08:07:19;;;;;;;0.10;0.10;;;;;;;12.18;63.03;100116.91;5114592;28;20028;-80
2024/03/03 08:09:45;;;;;;;0.10;0.10;;;;;;;12.20;63.36;100111.53;5114903;28;20032;-79
2024/03/03 08:12:11;;;;;;;0.20;0.20;;;;;;;12.21;63.40;100116.78;5114692;28;20028;-79
2024/03/03 08:14:37;;;;;;;0.10;0.10;;;;;;;12.25;62.97;100121.06;5115512;28;20244;-79
2024/03/03 08:17:03;;;;;;;0.30;0.30;;;;;;;12.30;63.14;100120.88;5104898;28;20503;-79
2024/03/03 08:19:29;;;;;;;0.70;0.70;;;;;;;12.35;63.39;100126.88;5104493;28;20433;-79
2024/03/03 08:21:56;;;;;;;0.85;0.85;;;;;;;12.42;62.94;100132.81;5103387;28;20055;-79
2024/03/03 08:24:22;;;;;;;0.80;0.80;;;;;;;12.48;62.88;100134.38;5103395;28;20081;-79
2024/03/03 08:26:49;;;;;;;0.10;0.10;;;;;;;12.55;63.22;100128.75;5098927;28;20016;-80
2024/03/03 08:29:16;;;;;;;0.60;0.60;;;;;;;12.64;63.02;100135.50;5094569;28;20031;-79
2024/03/03 08:31:44;;;;;;;0.10;0.10;;;;;;;12.71;63.29;100136.97;5095611;28;20039;-78
2024/03/03 08:34:11;;;;;;;0.10;0.10;;;;;;;12.76;63.24;100144.75;5096982;28;20059;-78
2024/03/03 08:36:39;;;;;;;1.67;0.43;;;;;;;12.78;63.06;100149.09;5096212;28;20062;-79
2024/03/03 08:39:10;;;;;;;0.22;0.22;;;;;;;12.84;63.60;100150.63;5098060;28;20469;-79
2024/03/03 08:41:39;;;;;;;0.10;0.10;;;;;;;12.85;63.28;100144.41;5099335;28;20035;-80
2024/03/03 08:44:06;;;;;;;2.92;0.57;;;;;;;12.92;63.32;100132.59;5100116;28;20062;-79
2024/03/03 08:46:32;;;;;;;0.20;0.20;;;;;;;13.00;63.26;100124.28;5100367;28;20051;-79
2024/03/03 08:48:59;;;;;;;4.07;0.90;;;;;;;13.09;63.70;100129.19;5101432;28;20020;-79
2024/03/03 08:51:27;;;;;;;0.10;0.10;;;;;;;13.15;63.74;100141.41;5101827;28;20120;-79
2024/03/03 08:53:53;;;;;;;0.17;0.17;;;;;;;13.25;63.30;100131.22;5095675;28;20028;-80
2024/03/03 08:56:22;;;;;;;0.95;0.95;;;;;;;13.31;63.29;100130.09;5102270;28;20024;-79
2024/03/03 08:58:48;;;;;;;0.10;0.10;;;;;;;13.35;63.26;100131.72;5102944;28;20054;-80
2024/03/03 09:01:14;;;;;;;0.10;0.10;;;;;;;13.37;62.60;100135.16;5102972;28;20080;-79
2024/03/03 09:03:42;;;;;;;0.47;0.47;;;;;;;13.41;62.52;100129.66;5102790;28;20058;-80
2024/03/03 09:06:09;;;;;;;0.45;0.45;;;;;;;13.47;62.51;100131.22;5102273;28;20115;-80
2024/03/03 09:08:41;;;;;;;0.68;0.68;;;;;;;13.58;62.86;100122.72;5102478;28;20024;-80
2024/03/03 09:11:07;;;;;;;0.75;0.63;;;;;;;13.73;62.48;100113.22;5102599;28;20103;-80
2024/03/03 09:13:35;;;;;;;0.30;0.30;;;;;;;13.84;61.72;100116.25;5103382;28;20031;-80
2024/03/03 09:16:01;;;;;;;0.10;0.10;;;;;;;13.95;61.20;100106.94;5102533;28;20101;-80
2024/03/03 09:18:27;;;;;;;0.10;0.10;;;;;;;14.01;60.86;100110.16;5102311;28;20028;-80
2024/03/03 09:20:54;;;;;;;0.10;0.10;;;;;;;14.12;61.05;100115.00;5102194;28;20030;-80
2024/03/03 09:23:20;;;;;;;0.10;0.10;;;;;;;14.23;59.97;100112.69;5101879;28;20368;-79
2024/03/03 09:25:46;;;;;;;1.45;0.52;;;;;;;14.31;59.48;100107.00;5101479;28;20039;-80
2024/03/03 09:28:15;;;;;;;0.22;0.22;;;;;;;14.41;59.58;100110.09;5101858;28;20487;-80
2024/03/03 09:30:42;;;;;;;0.38;0.38;;;;;;;14.48;58.97;100113.31;5101380;28;20089;-80
2024/03/03 09:33:08;;;;;;;0.10;0.10;;;;;;;14.62;60.04;100110.00;5102696;28;20032;-80
2024/03/03 09:35:34;;;;;;;0.10;0.10;;;;;;;14.72;59.81;100116.66;5101564;28;20079;-80
2024/03/03 09:38:00;;;;;;;0.32;0.32;;;;;;;14.79;58.91;100107.41;5090361;28;20507;-80
2024/03/03 09:40:33;;;;;;;0.10;0.10;;;;;;;14.87;57.82;100113.22;5089866;28;20028;-79
2024/03/03 09:43:02;;;;;;;0.22;0.22;;;;;;;14.90;58.44;100112.19;5094009;28;20400;-79
2024/03/03 09:45:29;;;;;;;0.10;0.10;;;;;;;14.97;58.15;100115.44;5094186;28;20111;-79
2024/03/03 09:48:01;;;;;;;0.80;0.73;;;;;;;15.05;58.58;100110.56;5101344;28;20020;-80
2024/03/03 09:50:28;;;;;;;0.10;0.10;;;;;;;15.16;58.23;100112.69;5102001;28;20073;-79
2024/03/03 09:52:56;;;;;;;0.47;0.47;;;;;;;15.22;57.52;100106.19;5101086;28;20030;-80
2024/03/03 09:55:24;;;;;;;0.10;0.10;;;;;;;15.28;57.69;100124.56;5100622;28;20107;-80
2024/03/03 09:57:51;;;;;;;1.85;0.55;;;;;;;15.33;57.73;100117.19;5100767;28;20028;-80
2024/03/03 10:00:19;;;;;;;2.28;0.93;;;;;;;15.36;56.37;100117.00;5101745;28;20088;-80
2024/03/03 10:02:47;;;;;;;0.10;0.10;;;;;;;15.38;56.00;100120.47;5101165;28;20419;-80
2024/03/03 10:05:15;;;;;;;0.10;0.10;;;;;;;15.32;55.48;100120.78;5100066;28;20036;-80
2024/03/03 10:07:51;;;;;;;0.10;0.10;;;;;;;15.35;56.12;100121.50;5101326;28;20111;-80
2024/03/03 10:10:22;;;;;;;0.10;0.10;;;;;;;15.32;55.73;100139.47;5101960;28;20027;-80
2024/03/03 10:12:50;;;;;;;0.20;0.20;;;;;;;15.31;55.35;100143.06;5102312;28;20023;-80
2024/03/03 10:15:18;;;;;;;0.10;0.10;;;;;;;15.32;55.80;100144.81;5099799;28;20079;-80
2024/03/03 10:17:45;;;;;;;0.10;0.10;;;;;;;15.34;56.48;100145.59;5100745;28;20028;-79
2024/03/03 10:20:12;;;;;;;0.10;0.10;;;;;;;15.38;57.51;100152.50;5101130;28;20020;-80
2024/03/03 10:22:40;;;;;;;0.40;0.40;;;;;;;15.39;56.56;100150.69;5100310;28;20032;-80
2024/03/03 10:27:45;;;;;;;0.20;0.20;;;;;;;15.47;56.52;100148.50;5077525;28;20060;-79
2024/03/03 10:30:14;;;;;;;0.10;0.10;;;;;;;15.48;56.68;100136.88;5076562;28;20035;-79
2024/03/03 10:32:42;;;;;;;0.10;0.10;;;;;;;15.50;56.13;100141.19;5076753;28;20029;-79
2024/03/03 10:35:09;;;;;;;0.30;0.30;;;;;;;15.51;56.50;100142.91;5077080;28;20039;-79
2024/03/03 10:37:45;;;;;;;0.10;0.10;;;;;;;15.50;56.80;100145.66;5076694;28;20043;-79
2024/03/03 10:40:12;;;;;;;2.92;0.85;;;;;;;15.52;56.98;100152.63;5077904;28;20029;-79
2024/03/03 10:42:39;;;;;;;0.10;0.10;;;;;;;15.55;57.33;100148.09;5077280;28;20098;-79
2024/03/03 10:45:06;;;;;;;0.10;0.10;;;;;;;15.61;57.25;100159.28;5077529;28;20024;-79
2024/03/03 10:47:35;;;;;;;0.10;0.10;;;;;;;15.80;57.75;100143.19;5072601;28;20020;-79
2024/03/03 10:50:02;;;;;;;0.65;0.65;;;;;;;15.97;58.02;100141.44;5069425;28;20496;-79
2024/03/03 10:52:41;;;;;;;0.10;0.10;;;;;;;16.16;56.82;100139.53;5069432;28;20103;-78
2024/03/03 10:55:10;;;;;;;0.10;0.10;;;;;;;16.33;56.30;100135.91;5064100;28;20029;-78
2024/03/03 10:57:37;;;;;;;0.75;0.75;;;;;;;16.43;55.47;100149.63;5072810;28;20103;-78
2024/03/03 11:00:06;;;;;;;0.45;0.45;;;;;;;16.52;55.98;100144.72;5071250;28;20029;-78
2024/03/03 11:02:34;;;;;;;0.10;0.10;;;;;;;16.49;54.95;100138.56;5073364;28;20100;-79
2024/03/03 11:05:01;;;;;;;0.10;0.10;;;;;;;16.41;54.49;100148.88;5073889;28;20067;-79
2024/03/03 11:07:29;;;;;;;0.50;0.50;;;;;;;16.43;55.06;100141.59;5075487;28;20084;-79
2024/03/03 11:09:57;;;;;;;0.20;0.20;;;;;;;16.43;53.64;100143.41;5075200;28;20111;-80
2024/03/03 11:12:27;;;;;;;0.10;0.10;;;;;;;16.56;55.15;100140.91;5077247;28;20052;-79
2024/03/03 11:14:56;;;;;;;0.10;0.10;;;;;;;16.55;53.37;100139.19;5076982;28;20542;-79
2024/03/03 11:17:28;;;;;;;0.10;0.10;;;;;;;16.66;53.41;100150.16;5075982;28;20052;-80
2024/03/03 11:19:57;;;;;;;;;;;;;;;16.90;52.68;100155.91;5076842;28;20039;-79
2024/03/03 11:22:24;;;;;;;0.03;0.03;;;;;;;16.85;50.88;100147.28;5076188;28;19908;-80
2024/03/03 11:27:29;;;;;;;0.10;0.10;;;;;;;17.05;52.25;100153.34;5116398;27;1205038;-79
2024/03/03 11:29:56;;;;;;;0.10;0.10;;;;;;;17.08;51.32;100147.81;5139127;27;20032;-79
2024/03/03 11:32:26;;;;;;;0.20;0.20;;;;;;;17.17;51.27;100157.09;5138672;27;20363;-79
2024/03/03 11:34:54;;;;;;;0.10;0.10;;;;;;;17.14;50.20;100158.16;5138496;27;20024;-79
2024/03/03 11:37:22;;;;;;;0.20;0.20;;;;;;;17.13;49.44;100146.59;5138158;27;20030;-79